createdAt,value
2022-11-14T00:01:53.190Z,22.57
2022-11-14T00:03:52.071Z,22.55
2022-11-14T00:05:50.075Z,22.56
2022-11-14T00:07:48.703Z,22.55
2022-11-14T00:09:46.739Z,22.53
2022-11-14T00:11:44.929Z,22.53
2022-11-14T00:13:43.236Z,22.52
2022-11-14T00:15:41.449Z,22.52
2022-11-14T00:17:39.495Z,22.51
2022-11-14T00:19:37.816Z,22.49
2022-11-14T00:21:36.035Z,22.50
2022-11-14T00:23:34.084Z,22.49
2022-11-14T00:25:32.396Z,22.48
2022-11-14T00:27:30.584Z,22.48
2022-11-14T00:29:28.807Z,22.46
2022-11-14T00:31:26.819Z,22.46
2022-11-14T00:33:25.118Z,22.45
2022-11-14T00:35:23.134Z,22.44
2022-11-14T00:37:21.570Z,22.44
2022-11-14T00:39:19.544Z,22.43
2022-11-14T00:41:17.928Z,22.42
2022-11-14T00:43:15.938Z,22.42
2022-11-14T00:45:14.138Z,22.42
2022-11-14T00:47:12.148Z,22.40
2022-11-14T00:49:10.396Z,22.40
2022-11-14T00:51:08.417Z,22.40
2022-11-14T00:53:06.437Z,22.39
2022-11-14T00:55:04.846Z,22.40
2022-11-14T00:57:03.067Z,22.38
2022-11-14T00:59:01.403Z,22.36
2022-11-14T01:00:59.787Z,22.37
2022-11-14T01:02:58.553Z,22.36
2022-11-14T01:04:56.571Z,22.35
2022-11-14T01:06:54.551Z,22.34
2022-11-14T01:08:52.650Z,22.33
2022-11-14T01:10:50.760Z,22.34
2022-11-14T01:12:49.042Z,22.34
2022-11-14T01:14:47.263Z,22.33
2022-11-14T01:16:45.280Z,22.32
2022-11-14T01:18:43.516Z,22.32
2022-11-14T01:20:41.736Z,22.31
2022-11-14T01:22:39.957Z,22.30
2022-11-14T01:24:38.362Z,22.29
2022-11-14T01:26:36.757Z,22.29
2022-11-14T01:28:34.961Z,22.28
2022-11-14T01:30:32.975Z,22.29
2022-11-14T01:32:31.299Z,22.27
2022-11-14T01:34:29.697Z,22.27
2022-11-14T01:36:27.735Z,22.27
2022-11-14T01:38:26.053Z,22.24
2022-11-14T01:40:24.090Z,22.26
2022-11-14T01:42:26.967Z,22.26
2022-11-14T01:44:25.882Z,22.23
2022-11-14T01:46:24.449Z,22.23
2022-11-14T01:48:21.656Z,22.22
2022-11-14T01:50:19.889Z,22.23
2022-11-14T01:52:17.898Z,22.22
2022-11-14T01:54:16.206Z,22.22
2022-11-14T01:56:14.247Z,22.22
2022-11-14T01:58:12.298Z,22.22
2022-11-14T02:00:10.580Z,22.20
2022-11-14T02:02:08.988Z,22.21
2022-11-14T02:04:08.804Z,22.21
2022-11-14T02:06:08.870Z,22.20
2022-11-14T02:08:07.082Z,22.22
2022-11-14T02:10:05.121Z,22.22
2022-11-14T02:12:03.335Z,22.22
2022-11-14T02:14:01.596Z,22.21
2022-11-14T02:15:59.657Z,22.23
2022-11-14T02:17:57.903Z,22.23
2022-11-14T02:20:00.848Z,22.23
2022-11-14T02:22:02.890Z,22.24
2022-11-14T02:24:01.196Z,22.27
2022-11-14T02:25:59.347Z,22.27
2022-11-14T02:27:57.339Z,22.28
2022-11-14T02:29:55.348Z,22.29
2022-11-14T02:31:53.372Z,22.29
2022-11-14T02:33:51.444Z,22.29
2022-11-14T02:35:49.631Z,22.30
2022-11-14T02:37:47.842Z,22.30
2022-11-14T02:39:45.874Z,22.30
2022-11-14T02:41:44.096Z,22.30
2022-11-14T02:43:42.334Z,22.30
2022-11-14T02:45:40.592Z,22.30
2022-11-14T02:47:38.927Z,22.30
2022-11-14T02:49:37.034Z,22.30
2022-11-14T02:51:35.048Z,22.30
2022-11-14T02:53:33.144Z,22.30
2022-11-14T02:55:31.398Z,22.29
2022-11-14T02:57:29.616Z,22.29
2022-11-14T02:59:27.641Z,22.29
2022-11-14T03:01:25.941Z,22.30
2022-11-14T03:03:24.006Z,22.29
2022-11-14T03:05:22.016Z,22.29
2022-11-14T03:07:20.092Z,22.28
2022-11-14T03:09:18.426Z,22.27
2022-11-14T03:11:16.449Z,22.28
2022-11-14T03:13:14.545Z,22.27
2022-11-14T03:15:12.721Z,22.27
2022-11-14T03:17:10.941Z,22.27
2022-11-14T03:19:09.146Z,22.26
2022-11-14T03:21:07.994Z,22.26
2022-11-14T03:23:06.299Z,22.25
2022-11-14T03:25:04.388Z,22.25
2022-11-14T03:27:02.804Z,22.24
2022-11-14T03:29:01.218Z,22.24
2022-11-14T03:30:59.431Z,22.22
2022-11-14T03:32:57.836Z,22.23
2022-11-14T03:34:56.252Z,22.22
2022-11-14T03:36:54.536Z,22.20
2022-11-14T03:38:52.741Z,22.21
2022-11-14T03:40:51.250Z,22.20
2022-11-14T03:42:49.519Z,22.19
2022-11-14T03:44:47.766Z,22.19
2022-11-14T03:46:46.190Z,22.17
2022-11-14T03:48:44.234Z,22.18
2022-11-14T03:50:42.496Z,22.19
2022-11-14T03:52:40.517Z,22.17
2022-11-14T03:54:38.600Z,22.16
2022-11-14T03:56:37.029Z,22.19
2022-11-14T03:58:35.352Z,22.19
2022-11-14T04:00:33.799Z,22.18
2022-11-14T04:02:32.237Z,22.20
2022-11-14T04:04:30.248Z,22.21
2022-11-14T04:06:28.269Z,22.21
2022-11-14T04:08:26.337Z,22.21
2022-11-14T04:10:24.406Z,22.23
2022-11-14T04:12:22.907Z,22.23
2022-11-14T04:14:20.902Z,22.24
2022-11-14T04:16:18.962Z,22.24
2022-11-14T04:18:17.383Z,22.24
2022-11-14T04:20:15.786Z,22.26
2022-11-14T04:22:13.834Z,22.24
2022-11-14T04:24:12.055Z,22.26
2022-11-14T04:26:10.296Z,22.24
2022-11-14T04:28:08.510Z,22.25
2022-11-14T04:30:06.522Z,22.25
2022-11-14T04:32:04.738Z,22.26
2022-11-14T04:34:03.003Z,22.26
2022-11-14T04:36:01.257Z,22.25
2022-11-14T04:37:59.290Z,22.26
2022-11-14T04:40:01.003Z,22.25
2022-11-14T04:41:59.349Z,22.25
2022-11-14T04:43:57.605Z,22.25
2022-11-14T04:45:55.613Z,22.26
2022-11-14T04:47:53.628Z,22.23
2022-11-14T04:49:51.690Z,22.23
2022-11-14T04:51:50.001Z,22.23
2022-11-14T04:53:48.256Z,22.21
2022-11-14T04:55:46.739Z,22.22
2022-11-14T04:57:44.933Z,22.22
2022-11-14T04:59:43.179Z,22.22
2022-11-14T05:01:41.436Z,22.21
2022-11-14T05:03:39.640Z,22.20
2022-11-14T05:05:41.716Z,22.19
2022-11-14T05:07:40.509Z,22.17
2022-11-14T05:09:38.730Z,22.19
2022-11-14T05:11:37.036Z,22.18
2022-11-14T05:13:35.306Z,22.17
2022-11-14T05:15:33.621Z,22.15
2022-11-14T05:17:31.641Z,22.15
2022-11-14T05:19:29.680Z,22.14
2022-11-14T05:21:27.876Z,22.15
2022-11-14T05:23:26.092Z,22.15
2022-11-14T05:25:24.397Z,22.15
2022-11-14T05:27:22.615Z,22.15
2022-11-14T05:29:21.037Z,22.15
2022-11-14T05:31:19.470Z,22.17
2022-11-14T05:33:17.861Z,22.16
2022-11-14T05:35:16.085Z,22.17
2022-11-14T05:37:14.113Z,22.18
2022-11-14T05:39:12.188Z,22.19
2022-11-14T05:41:10.283Z,22.19
2022-11-14T05:43:08.321Z,22.20
2022-11-14T05:45:06.648Z,22.21
2022-11-14T05:47:04.880Z,22.21
2022-11-14T05:49:03.158Z,22.21
2022-11-14T05:51:01.553Z,22.21
2022-11-14T05:52:59.546Z,22.22
2022-11-14T05:54:57.772Z,22.22
2022-11-14T05:56:56.032Z,22.23
2022-11-14T05:58:54.447Z,22.22
2022-11-14T06:00:54.533Z,22.23
2022-11-14T06:02:52.855Z,22.24
2022-11-14T06:04:51.066Z,22.23
2022-11-14T06:06:49.165Z,22.22
2022-11-14T06:08:47.439Z,22.22
2022-11-14T06:10:45.467Z,22.22
2022-11-14T06:12:43.493Z,22.22
2022-11-14T06:14:41.756Z,22.22
2022-11-14T06:16:39.805Z,22.21
2022-11-14T06:18:38.034Z,22.22
2022-11-14T06:20:36.066Z,22.21
2022-11-14T06:22:35.905Z,22.20
2022-11-14T06:24:34.330Z,22.20
2022-11-14T06:26:32.352Z,22.20
2022-11-14T06:28:30.988Z,22.19
2022-11-14T06:30:29.263Z,22.18
2022-11-14T06:32:27.505Z,22.17
2022-11-14T06:34:25.525Z,22.17
2022-11-14T06:36:23.918Z,22.16
2022-11-14T06:38:21.944Z,22.16
2022-11-14T06:40:19.944Z,22.17
2022-11-14T06:42:18.529Z,22.15
2022-11-14T06:44:17.942Z,22.15
2022-11-14T06:46:15.913Z,22.16
2022-11-14T06:48:14.267Z,22.15
2022-11-14T06:50:12.507Z,22.14
2022-11-14T06:52:10.744Z,22.12
2022-11-14T06:54:08.946Z,22.13
2022-11-14T06:56:07.167Z,22.13
2022-11-14T06:58:05.599Z,22.12
2022-11-14T07:00:04.610Z,22.12
2022-11-14T07:02:02.857Z,22.12
2022-11-14T07:04:02.355Z,22.11
2022-11-14T07:06:00.817Z,22.13
2022-11-14T07:07:58.897Z,22.13
2022-11-14T07:09:59.013Z,22.14
2022-11-14T07:11:57.385Z,22.14
2022-11-14T07:13:55.613Z,22.15
2022-11-14T07:15:53.767Z,22.18
2022-11-14T07:17:52.009Z,22.19
2022-11-14T07:19:50.230Z,22.21
2022-11-14T07:21:48.745Z,22.23
2022-11-14T07:23:46.965Z,22.26
2022-11-14T07:25:44.949Z,22.28
2022-11-14T07:27:43.374Z,22.31
2022-11-14T07:29:41.667Z,22.34
2022-11-14T07:31:39.691Z,22.37
2022-11-14T07:33:38.130Z,22.40
2022-11-14T07:35:36.178Z,22.44
2022-11-14T07:37:34.426Z,22.45
2022-11-14T07:39:32.712Z,22.50
2022-11-14T07:41:30.745Z,22.54
2022-11-14T07:43:29.012Z,22.57
2022-11-14T07:45:27.217Z,22.61
2022-11-14T07:47:25.318Z,22.64
2022-11-14T07:49:23.557Z,22.67
2022-11-14T07:51:21.751Z,22.70
2022-11-14T07:53:19.829Z,22.74
2022-11-14T07:55:18.132Z,22.76
2022-11-14T07:57:16.475Z,22.79
2022-11-14T07:59:14.521Z,22.82
2022-11-14T08:01:12.624Z,22.87
2022-11-14T08:03:10.978Z,22.87
2022-11-14T08:05:09.354Z,22.90
2022-11-14T08:07:07.430Z,22.92
2022-11-14T08:09:05.651Z,22.95
2022-11-14T08:11:03.689Z,22.95
2022-11-14T08:13:29.888Z,22.98
2022-11-14T08:15:20.244Z,23.00
2022-11-14T08:17:18.465Z,23.01
2022-11-14T08:19:17.021Z,23.02
2022-11-14T08:21:15.029Z,23.04
2022-11-14T08:23:13.056Z,23.05
2022-11-14T08:25:11.407Z,23.07
2022-11-14T08:27:09.634Z,23.08
2022-11-14T08:29:08.051Z,23.07
2022-11-14T08:31:06.053Z,23.09
2022-11-14T08:33:04.728Z,23.09
2022-11-14T08:35:02.989Z,23.10
2022-11-14T08:37:01.204Z,23.10
2022-11-14T08:39:02.104Z,23.10
2022-11-14T08:41:00.739Z,23.13
2022-11-14T08:42:59.196Z,23.11
2022-11-14T08:44:57.403Z,23.11
2022-11-14T08:46:55.754Z,23.12
2022-11-14T08:48:54.051Z,23.13
2022-11-14T08:50:52.321Z,23.14
2022-11-14T08:52:50.770Z,23.16
2022-11-14T08:54:48.814Z,23.16
2022-11-14T08:56:46.870Z,23.17
2022-11-14T08:58:45.063Z,23.16
2022-11-14T09:00:43.222Z,23.17
2022-11-14T09:02:41.492Z,23.18
2022-11-14T09:04:39.957Z,23.17
2022-11-14T09:06:38.296Z,23.18
2022-11-14T09:08:36.524Z,23.19
2022-11-14T09:10:34.632Z,23.19
2022-11-14T09:12:32.692Z,23.20
2022-11-14T09:14:30.990Z,23.20
2022-11-14T09:16:29.213Z,23.20
2022-11-14T09:18:27.430Z,23.20
2022-11-14T09:20:31.530Z,23.22
2022-11-14T09:22:31.370Z,23.23
2022-11-14T09:24:29.817Z,23.22
2022-11-14T09:26:28.646Z,23.23
2022-11-14T09:28:26.673Z,23.23
2022-11-14T09:30:24.961Z,23.22
2022-11-14T09:32:23.651Z,23.21
2022-11-14T09:34:21.843Z,23.23
2022-11-14T09:36:19.915Z,23.22
2022-11-14T09:38:17.990Z,23.21
2022-11-14T09:40:16.201Z,23.22
2022-11-14T09:42:17.132Z,23.23
2022-11-14T09:44:20.361Z,23.24
2022-11-14T09:46:19.115Z,23.24
2022-11-14T09:48:17.186Z,23.23
2022-11-14T09:50:15.857Z,23.24
2022-11-14T09:52:13.845Z,23.24
2022-11-14T09:54:12.121Z,23.25
2022-11-14T09:56:10.544Z,23.26
2022-11-14T09:58:08.594Z,23.25
2022-11-14T10:00:06.825Z,23.27
2022-11-14T10:02:04.926Z,23.27
2022-11-14T10:04:08.329Z,23.26
2022-11-14T10:06:07.670Z,23.28
2022-11-14T10:08:05.924Z,23.28
2022-11-14T10:10:04.169Z,23.28
2022-11-14T10:12:02.589Z,23.28
2022-11-14T10:14:02.895Z,23.28
2022-11-14T10:16:01.051Z,23.28
2022-11-14T10:17:59.331Z,23.29
2022-11-14T10:19:57.436Z,23.29
2022-11-14T10:21:55.838Z,23.28
2022-11-14T10:23:54.119Z,23.27
2022-11-14T10:25:53.779Z,23.27
2022-11-14T10:27:56.569Z,23.28
2022-11-14T10:29:56.619Z,23.28
2022-11-14T10:31:54.643Z,23.28
2022-11-14T10:33:52.660Z,23.27
2022-11-14T10:35:51.176Z,23.26
2022-11-14T10:37:49.412Z,23.28
2022-11-14T10:39:47.723Z,23.26
2022-11-14T10:42:07.179Z,23.27
2022-11-14T10:44:04.553Z,23.27
2022-11-14T10:46:02.571Z,23.27
2022-11-14T10:48:00.677Z,23.27
2022-11-14T10:49:58.889Z,23.28
2022-11-14T10:51:57.356Z,23.28
2022-11-14T10:53:55.423Z,23.28
2022-11-14T10:56:08.956Z,23.29
2022-11-14T10:58:06.943Z,23.29
2022-11-14T11:00:05.196Z,23.28
2022-11-14T11:02:03.212Z,23.28
2022-11-14T11:04:01.381Z,23.28
2022-11-14T11:05:59.949Z,23.28
2022-11-14T11:08:41.272Z,23.28
2022-11-14T11:10:50.947Z,23.29
2022-11-14T11:12:49.394Z,23.29
2022-11-14T11:14:47.750Z,23.28
2022-11-14T11:16:45.994Z,23.28
2022-11-14T11:18:48.505Z,23.28
2022-11-14T11:20:49.052Z,23.29
2022-11-14T11:22:47.374Z,23.28
2022-11-14T11:24:45.830Z,23.29
2022-11-14T11:26:44.342Z,23.30
2022-11-14T11:28:42.601Z,23.31
2022-11-14T11:30:40.839Z,23.30
2022-11-14T11:32:38.907Z,23.30
2022-11-14T11:34:37.342Z,23.31
2022-11-14T11:36:35.914Z,23.33
2022-11-14T11:38:34.582Z,23.33
2022-11-14T11:40:33.089Z,23.35
2022-11-14T11:43:06.217Z,23.34
2022-11-14T11:44:49.199Z,23.37
2022-11-14T11:46:47.248Z,23.37
2022-11-14T11:48:45.558Z,23.36
2022-11-14T11:50:44.174Z,23.37
2022-11-14T11:52:42.474Z,23.38
2022-11-14T11:54:40.707Z,23.37
2022-11-14T11:56:38.739Z,23.37
2022-11-14T11:58:37.080Z,23.37
2022-11-14T12:00:35.404Z,23.37
2022-11-14T12:02:33.769Z,23.36
2022-11-14T12:04:32.139Z,23.37
2022-11-14T12:06:30.338Z,23.36
2022-11-14T12:08:28.364Z,23.36
2022-11-14T12:10:26.391Z,23.36
2022-11-14T12:12:24.445Z,23.36
2022-11-14T12:14:22.578Z,23.36
2022-11-14T12:16:20.801Z,23.36
2022-11-14T12:18:19.087Z,23.35
2022-11-14T12:20:17.512Z,23.35
2022-11-14T12:22:15.741Z,23.35
2022-11-14T12:24:14.050Z,23.35
2022-11-14T12:26:12.287Z,23.35
2022-11-14T12:28:10.507Z,23.35
2022-11-14T12:30:08.944Z,23.34
2022-11-14T12:32:07.200Z,23.36
2022-11-14T12:34:05.522Z,23.34
2022-11-14T12:36:03.611Z,23.36
2022-11-14T12:38:01.841Z,23.35
2022-11-14T12:40:00.195Z,23.34
2022-11-14T12:41:58.625Z,23.35
2022-11-14T12:43:56.965Z,23.36
2022-11-14T12:45:55.203Z,23.36
2022-11-14T12:47:53.221Z,23.36
2022-11-14T12:49:52.609Z,23.37
2022-11-14T12:51:51.057Z,23.36
2022-11-14T12:53:49.414Z,23.37
2022-11-14T12:55:47.650Z,23.37
2022-11-14T12:57:51.560Z,23.37
2022-11-14T12:59:49.804Z,23.36
2022-11-14T13:01:48.114Z,23.37
2022-11-14T13:03:46.409Z,23.37
2022-11-14T13:05:46.738Z,23.37
2022-11-14T13:07:44.817Z,23.39
2022-11-14T13:09:43.033Z,23.38
2022-11-14T13:11:58.703Z,23.38
2022-11-14T13:14:14.147Z,23.39
2022-11-14T13:16:35.276Z,23.39
2022-11-14T13:18:51.027Z,23.41
2022-11-14T13:21:06.913Z,23.40
2022-11-14T13:23:05.273Z,23.40
2022-11-14T13:25:03.584Z,23.40
2022-11-14T13:27:01.713Z,23.39
2022-11-14T13:29:00.308Z,23.41
2022-11-14T13:30:58.514Z,23.41
2022-11-14T13:32:57.156Z,23.42
2022-11-14T13:34:55.475Z,23.42
2022-11-14T13:36:53.506Z,23.42
2022-11-14T13:38:52.044Z,23.42
2022-11-14T13:40:50.281Z,23.41
2022-11-14T13:42:48.310Z,23.42
2022-11-14T13:44:46.753Z,23.42
2022-11-14T13:46:44.809Z,23.43
2022-11-14T13:48:47.329Z,23.42
2022-11-14T13:50:45.842Z,23.42
2022-11-14T13:52:44.067Z,23.41
2022-11-14T13:54:42.367Z,23.41
2022-11-14T13:56:40.617Z,23.41
2022-11-14T13:58:39.030Z,23.40
2022-11-14T14:00:37.316Z,23.41
2022-11-14T14:02:35.579Z,23.41
2022-11-14T14:04:33.913Z,23.39
2022-11-14T14:06:32.118Z,23.39
2022-11-14T14:08:30.410Z,23.39
2022-11-14T14:10:28.450Z,23.38
2022-11-14T14:12:26.492Z,23.38
2022-11-14T14:14:24.503Z,23.39
2022-11-14T14:16:22.824Z,23.39
2022-11-14T14:18:22.027Z,23.39
2022-11-14T14:20:20.218Z,23.40
2022-11-14T14:22:18.547Z,23.39
2022-11-14T14:24:16.879Z,23.39
2022-11-14T14:26:14.924Z,23.39
2022-11-14T14:28:13.169Z,23.40
2022-11-14T14:30:11.512Z,23.40
2022-11-14T14:32:09.950Z,23.41
2022-11-14T14:34:08.205Z,23.40
2022-11-14T14:36:06.330Z,23.41
2022-11-14T14:38:04.454Z,23.42
2022-11-14T14:40:02.801Z,23.40
2022-11-14T14:42:01.118Z,23.42
2022-11-14T14:43:59.478Z,23.41
2022-11-14T14:45:57.732Z,23.42
2022-11-14T14:47:55.813Z,23.42
2022-11-14T14:49:54.042Z,23.42
2022-11-14T14:51:57.132Z,23.42
2022-11-14T14:53:56.470Z,23.44
2022-11-14T14:55:54.489Z,23.44
2022-11-14T14:57:52.711Z,23.44
2022-11-14T14:59:51.026Z,23.45
2022-11-14T15:01:49.115Z,23.47
2022-11-14T15:03:47.221Z,23.47
2022-11-14T15:05:45.265Z,23.47
2022-11-14T15:07:43.562Z,23.47
2022-11-14T15:09:41.769Z,23.47
2022-11-14T15:11:39.992Z,23.49
2022-11-14T15:13:38.884Z,23.49
2022-11-14T15:15:37.073Z,23.49
2022-11-14T15:17:36.065Z,23.49
2022-11-14T15:19:35.802Z,23.49
2022-11-14T15:21:34.115Z,23.50
2022-11-14T15:23:32.164Z,23.48
2022-11-14T15:25:30.390Z,23.48
2022-11-14T15:27:28.685Z,23.49
2022-11-14T15:29:26.917Z,23.49
2022-11-14T15:31:25.355Z,23.47
2022-11-14T15:33:23.946Z,23.49
2022-11-14T15:35:25.273Z,23.47
2022-11-14T15:37:23.865Z,23.48
2022-11-14T15:39:21.917Z,23.48
2022-11-14T15:41:20.266Z,23.47
2022-11-14T15:43:18.331Z,23.47
2022-11-14T15:45:16.407Z,23.49
2022-11-14T15:47:15.200Z,23.46
2022-11-14T15:49:13.436Z,23.46
2022-11-14T15:51:12.289Z,23.46
2022-11-14T15:53:10.525Z,23.47
2022-11-14T15:55:08.566Z,23.46
2022-11-14T15:57:06.819Z,23.45
2022-11-14T15:59:04.921Z,23.46
2022-11-14T16:01:03.513Z,23.46
2022-11-14T16:03:01.808Z,23.45
2022-11-14T16:05:00.003Z,23.46
2022-11-14T16:06:58.555Z,23.46
2022-11-14T16:08:56.679Z,23.44
2022-11-14T16:10:55.019Z,23.43
2022-11-14T16:12:53.135Z,23.42
2022-11-14T16:14:51.557Z,23.41
2022-11-14T16:16:49.812Z,23.40
2022-11-14T16:18:48.097Z,23.38
2022-11-14T16:20:46.549Z,23.39
2022-11-14T16:22:44.566Z,23.38
2022-11-14T16:24:42.635Z,23.37
2022-11-14T16:26:41.170Z,23.35
2022-11-14T16:28:39.586Z,23.33
2022-11-14T16:30:37.840Z,23.32
2022-11-14T16:32:36.264Z,23.31
2022-11-14T16:34:34.653Z,23.30
2022-11-14T16:36:33.284Z,23.28
2022-11-14T16:38:31.709Z,23.26
2022-11-14T16:40:29.772Z,23.25
2022-11-14T16:42:28.059Z,23.24
2022-11-14T16:44:26.548Z,23.23
2022-11-14T16:46:24.900Z,23.19
2022-11-14T16:48:22.922Z,23.19
2022-11-14T16:50:21.264Z,23.17
2022-11-14T16:52:19.916Z,23.16
2022-11-14T16:54:18.006Z,23.13
2022-11-14T16:56:16.237Z,23.13
2022-11-14T16:58:14.255Z,23.10
2022-11-14T17:00:12.614Z,23.09
2022-11-14T17:02:10.957Z,23.08
2022-11-14T17:04:09.233Z,23.05
2022-11-14T17:06:07.471Z,23.04
2022-11-14T17:08:05.796Z,23.03
2022-11-14T17:10:04.308Z,23.01
2022-11-14T17:12:02.335Z,23.00
2022-11-14T17:14:00.517Z,22.99
2022-11-14T17:15:58.539Z,22.97
2022-11-14T17:17:56.748Z,22.96
2022-11-14T17:19:55.099Z,22.95
2022-11-14T17:21:53.395Z,22.94
2022-11-14T17:23:51.632Z,22.93
2022-11-14T17:25:49.741Z,22.91
2022-11-14T17:27:48.992Z,22.90
2022-11-14T17:29:47.388Z,22.89
2022-11-14T17:31:47.237Z,22.88
2022-11-14T17:33:45.716Z,22.87
2022-11-14T17:35:44.143Z,22.86
2022-11-14T17:37:42.452Z,22.85
2022-11-14T17:39:41.091Z,22.82
2022-11-14T17:41:39.980Z,22.82
2022-11-14T17:43:39.941Z,22.80
2022-11-14T17:45:41.203Z,22.79
2022-11-14T17:47:39.780Z,22.78
2022-11-14T17:49:37.778Z,22.78
2022-11-14T17:51:35.978Z,22.77
2022-11-14T17:53:34.542Z,22.75
2022-11-14T17:55:32.903Z,22.76
2022-11-14T17:57:31.506Z,22.73
2022-11-14T17:59:29.747Z,22.73
2022-11-14T18:01:30.378Z,22.71
2022-11-14T18:03:28.667Z,22.70
2022-11-14T18:05:26.657Z,22.70
2022-11-14T18:07:24.983Z,22.69
2022-11-14T18:09:23.238Z,22.68
2022-11-14T18:11:21.259Z,22.66
2022-11-14T18:13:19.538Z,22.66
2022-11-14T18:15:17.587Z,22.64
2022-11-14T18:17:15.628Z,22.63
2022-11-14T18:19:13.981Z,22.63
2022-11-14T18:21:12.035Z,22.62
2022-11-14T18:23:10.183Z,22.62
2022-11-14T18:25:08.418Z,22.59
2022-11-14T18:27:06.829Z,22.59
2022-11-14T18:29:06.226Z,22.59
2022-11-14T18:31:07.390Z,22.58
2022-11-14T18:33:07.254Z,22.57
2022-11-14T18:35:05.289Z,22.57
2022-11-14T18:37:03.394Z,22.56
2022-11-14T18:39:01.422Z,22.56
2022-11-14T18:40:59.641Z,22.55
2022-11-14T18:42:57.863Z,22.55
2022-11-14T18:44:56.118Z,22.54
2022-11-14T18:46:54.153Z,22.52
2022-11-14T18:48:52.249Z,22.52
2022-11-14T18:50:50.491Z,22.51
2022-11-14T18:52:48.747Z,22.51
2022-11-14T18:54:46.831Z,22.49
2022-11-14T18:56:44.842Z,22.49
2022-11-14T18:58:42.847Z,22.49
2022-11-14T19:00:40.973Z,22.49
2022-11-14T19:02:39.041Z,22.48
2022-11-14T19:04:37.110Z,22.47
2022-11-14T19:06:35.339Z,22.47
2022-11-14T19:08:33.381Z,22.46
2022-11-14T19:10:31.468Z,22.45
2022-11-14T19:12:28.811Z,22.45
2022-11-14T19:14:27.037Z,22.46
2022-11-14T19:16:25.261Z,22.45
2022-11-14T19:18:23.291Z,22.45
2022-11-14T19:20:22.616Z,22.47
2022-11-14T19:22:20.832Z,22.47
2022-11-14T19:24:19.045Z,22.47
2022-11-14T19:26:17.035Z,22.48
2022-11-14T19:28:15.063Z,22.48
2022-11-14T19:30:13.270Z,22.52
2022-11-14T19:32:11.502Z,22.52
2022-11-14T19:34:09.562Z,22.53
2022-11-14T19:36:07.574Z,22.55
2022-11-14T19:38:05.598Z,22.56
2022-11-14T19:40:04.838Z,22.58
2022-11-14T19:42:02.952Z,22.60
2022-11-14T19:44:00.983Z,22.62
2022-11-14T19:45:59.151Z,22.61
2022-11-14T19:47:57.178Z,22.63
2022-11-14T19:49:55.193Z,22.64
2022-11-14T19:51:53.115Z,22.65
2022-11-14T19:53:52.550Z,22.65
2022-11-14T19:55:50.563Z,22.66
2022-11-14T19:57:48.731Z,22.66
2022-11-14T19:59:46.711Z,22.65
2022-11-14T20:01:44.791Z,22.66
2022-11-14T20:03:43.081Z,22.66
2022-11-14T20:05:41.472Z,22.68
2022-11-14T20:07:39.511Z,22.66
2022-11-14T20:09:37.570Z,22.67
2022-11-14T20:11:35.769Z,22.66
2022-11-14T20:13:34.126Z,22.65
2022-11-14T20:15:32.440Z,22.64
2022-11-14T20:17:31.133Z,22.64
2022-11-14T20:19:29.239Z,22.64
2022-11-14T20:21:27.564Z,22.63
2022-11-14T20:23:26.721Z,22.63
2022-11-14T20:25:25.017Z,22.62
2022-11-14T20:27:23.320Z,22.61
2022-11-14T20:29:21.397Z,22.62
2022-11-14T20:31:19.719Z,22.61
2022-11-14T20:33:18.235Z,22.59
2022-11-14T20:35:16.513Z,22.60
2022-11-14T20:37:14.699Z,22.58
2022-11-14T20:39:12.764Z,22.58
2022-11-14T20:41:11.515Z,22.56
2022-11-14T20:43:09.601Z,22.55
2022-11-14T20:45:07.658Z,22.55
2022-11-14T20:47:09.852Z,22.55
2022-11-14T20:49:09.248Z,22.54
2022-11-14T20:51:07.316Z,22.53
2022-11-14T20:53:05.371Z,22.52
2022-11-14T20:55:08.930Z,22.52
2022-11-14T20:57:09.603Z,22.51
2022-11-14T20:59:08.645Z,22.49
2022-11-14T21:01:07.410Z,22.49
2022-11-14T21:03:05.488Z,22.49
2022-11-14T21:05:03.798Z,22.47
2022-11-14T21:07:01.883Z,22.47
2022-11-14T21:09:00.031Z,22.46
2022-11-14T21:10:58.088Z,22.46
2022-11-14T21:13:10.261Z,22.44
2022-11-14T21:15:08.408Z,22.44
2022-11-14T21:17:06.446Z,22.44
2022-11-14T21:19:04.715Z,22.43
2022-11-14T21:21:02.965Z,22.42
2022-11-14T21:23:01.014Z,22.42
2022-11-14T21:24:59.039Z,22.42
2022-11-14T21:26:57.136Z,22.41
2022-11-14T21:28:55.605Z,22.40
2022-11-14T21:30:53.841Z,22.41
2022-11-14T21:32:52.095Z,22.40
2022-11-14T21:34:50.124Z,22.40
2022-11-14T21:36:48.761Z,22.42
2022-11-14T21:38:46.826Z,22.41
2022-11-14T21:40:45.006Z,22.43
2022-11-14T21:42:43.024Z,22.43
2022-11-14T21:44:41.044Z,22.43
2022-11-14T21:46:39.299Z,22.45
2022-11-14T21:48:41.204Z,22.44
2022-11-14T21:50:39.773Z,22.46
2022-11-14T21:52:38.123Z,22.46
2022-11-14T21:54:37.549Z,22.47
2022-11-14T21:56:35.563Z,22.47
2022-11-14T21:58:33.838Z,22.47
2022-11-14T22:00:31.886Z,22.48
2022-11-14T22:02:47.588Z,22.48
2022-11-14T22:04:45.796Z,22.48
2022-11-14T22:06:44.079Z,22.49
2022-11-14T22:08:42.327Z,22.49
2022-11-14T22:10:40.603Z,22.47
2022-11-14T22:12:38.923Z,22.49
2022-11-14T22:14:36.992Z,22.48
2022-11-14T22:16:35.066Z,22.49
2022-11-14T22:18:33.371Z,22.47
2022-11-14T22:20:31.587Z,22.48
2022-11-14T22:22:29.831Z,22.47
2022-11-14T22:24:27.878Z,22.47
2022-11-14T22:26:25.905Z,22.46
2022-11-14T22:28:24.113Z,22.46
2022-11-14T22:30:22.533Z,22.46
2022-11-14T22:32:20.542Z,22.46
2022-11-14T22:34:18.957Z,22.46
2022-11-14T22:36:17.025Z,22.46
2022-11-14T22:38:15.251Z,22.46
2022-11-14T22:40:13.616Z,22.46
2022-11-14T22:42:11.858Z,22.46
2022-11-14T22:44:10.225Z,22.46
2022-11-14T22:46:08.573Z,22.44
2022-11-14T22:48:06.823Z,22.45
2022-11-14T22:50:05.034Z,22.44
2022-11-14T22:52:03.070Z,22.43
2022-11-14T22:54:01.515Z,22.42
2022-11-14T22:55:59.857Z,22.43
2022-11-14T22:57:58.244Z,22.42
2022-11-14T22:59:56.657Z,22.42
2022-11-14T23:01:54.695Z,22.41
2022-11-14T23:03:52.955Z,22.42
2022-11-14T23:05:51.381Z,22.42
2022-11-14T23:07:49.474Z,22.42
2022-11-14T23:09:47.518Z,22.42
2022-11-14T23:11:45.750Z,22.43
2022-11-14T23:13:43.964Z,22.43
2022-11-14T23:15:42.368Z,22.43
2022-11-14T23:17:40.407Z,22.43
2022-11-14T23:19:38.653Z,22.45
2022-11-14T23:21:36.642Z,22.44
2022-11-14T23:23:35.094Z,22.45
2022-11-14T23:25:33.139Z,22.45
2022-11-14T23:27:31.183Z,22.47
2022-11-14T23:29:29.265Z,22.47
2022-11-14T23:31:27.679Z,22.47
2022-11-14T23:33:25.696Z,22.46
2022-11-14T23:35:24.034Z,22.47
2022-11-14T23:37:22.069Z,22.46
2022-11-14T23:39:20.114Z,22.46
2022-11-14T23:41:18.452Z,22.46
2022-11-14T23:43:16.932Z,22.46
2022-11-14T23:45:14.939Z,22.47
2022-11-14T23:47:13.318Z,22.47
2022-11-14T23:49:11.612Z,22.47
2022-11-14T23:51:09.967Z,22.47
2022-11-14T23:53:08.377Z,22.45
2022-11-14T23:55:06.622Z,22.47
2022-11-14T23:57:04.953Z,22.46
2022-11-14T23:59:03.002Z,22.45
